Edwardsburg, Michigan
Current Conditions -  °F | °C
As of 2:54 PM on Thursday 27 Nov 2014 (Local Time) from KSBN Reporting Station
Light Snow Light Snow  
Wind Chill: 19°   Ceiling: 1700
Heat Index: 29°   Visibility: 7mi
Dew Point: 23°   Wind: 12mph
Humidity: 78%   Direction: 290°WNW
Pressure: 30.27"   Gusts: NA
Location:  41.8°N, 86.08°W
Report Text: KSBN 271954Z 29010KT 7SM -SN BKN017 OVC026 M02/M05 A3027 RMK AO2 SLP262 P0000 T10171050
Loading
Personal Weather Stations






























Interactive Weather Map New forecast layout! Learn more

10-Day Weather Forecast

Advertisements
Track Severe Weather on mobile